Time;durP1;ratioP1;P1;durP2;ratioP2;P2;SDS_P1;SDS_P2;PMS_P1;PMS_P2;Temp;Humidity;BMP_temperature;BMP_pressure;BME280_temperature;BME280_humidity;BME280_pressure;Samples;Min_cycle;Max_cycle;Signal;HPM_P1;HPM_P2
2024/03/30 00:00:11;;;;;;;1.75;0.60;;;;;;;13.53;88.74;99607.31;5246759;28;20385;-77
2024/03/30 00:02:43;;;;;;;1.93;0.60;;;;;;;13.59;87.79;99589.97;5246951;28;20040;-77
2024/03/30 00:05:15;;;;;;;1.25;0.60;;;;;;;13.55;87.64;99597.41;5247934;28;20303;-77
2024/03/30 00:07:47;;;;;;;1.42;0.70;;;;;;;13.55;87.87;99599.22;5243928;28;20653;-78
2024/03/30 00:10:19;;;;;;;1.30;0.70;;;;;;;13.55;88.02;99605.31;5246000;28;20297;-78
2024/03/30 00:12:54;;;;;;;1.15;0.47;;;;;;;13.51;88.37;99593.50;5247359;28;20638;-78
2024/03/30 00:15:27;;;;;;;1.27;0.43;;;;;;;13.49;89.26;99592.06;5247647;28;20643;-78
2024/03/30 00:17:59;;;;;;;1.42;0.70;;;;;;;13.57;87.68;99595.44;5247684;28;20043;-77
2024/03/30 00:20:31;;;;;;;1.63;0.70;;;;;;;13.54;88.06;99590.53;5245322;28;20037;-77
2024/03/30 00:23:03;;;;;;;1.38;0.60;;;;;;;13.55;87.80;99580.81;5247419;28;20296;-78
2024/03/30 00:25:35;;;;;;;2.13;1.08;;;;;;;13.51;85.98;99563.75;5247180;28;20041;-78
2024/03/30 00:28:06;;;;;;;1.40;0.52;;;;;;;13.50;86.09;99564.75;5247100;28;20037;-78
2024/03/30 00:30:39;;;;;;;1.25;0.50;;;;;;;13.51;86.28;99576.91;5246245;28;20505;-77
2024/03/30 00:33:12;;;;;;;1.60;0.70;;;;;;;13.53;84.72;99559.94;5247631;28;20034;-78
2024/03/30 00:35:45;;;;;;;1.70;0.55;;;;;;;13.48;86.40;99557.03;5243164;28;20032;-77
2024/03/30 00:38:17;;;;;;;2.05;0.60;;;;;;;13.49;86.05;99548.16;5247394;28;20029;-77
2024/03/30 00:40:49;;;;;;;1.00;0.52;;;;;;;13.44;86.06;99541.78;5247169;28;20041;-80
2024/03/30 00:43:21;;;;;;;1.05;0.60;;;;;;;13.37;85.00;99533.78;5247393;28;20052;-80
2024/03/30 00:45:53;;;;;;;1.60;0.60;;;;;;;13.39;84.98;99540.50;5224195;28;20055;-79
2024/03/30 00:48:24;;;;;;;1.13;0.60;;;;;;;13.38;83.73;99548.59;5247693;28;20040;-80
2024/03/30 00:50:56;;;;;;;1.13;0.52;;;;;;;13.39;84.25;99537.88;5247706;28;20505;-80
2024/03/30 00:53:28;;;;;;;1.23;0.40;;;;;;;13.35;84.11;99526.09;5226992;28;20044;-80
2024/03/30 00:56:00;;;;;;;0.90;0.50;;;;;;;13.37;83.36;99521.47;5247959;28;20024;-80
2024/03/30 00:58:32;;;;;;;1.08;0.50;;;;;;;13.28;82.69;99509.38;5247506;28;20498;-80
2024/03/30 01:01:04;;;;;;;0.88;0.50;;;;;;;13.34;83.68;99519.19;5228609;28;20055;-79
2024/03/30 01:03:36;;;;;;;1.15;0.40;;;;;;;13.35;83.09;99512.94;5247004;28;20033;-80
2024/03/30 01:06:08;;;;;;;0.82;0.43;;;;;;;13.35;84.01;99517.38;5246840;28;20040;-80
2024/03/30 01:08:40;;;;;;;1.00;0.40;;;;;;;13.34;82.44;99513.94;5246189;28;20036;-79
2024/03/30 01:11:13;;;;;;;1.63;0.50;;;;;;;13.35;82.20;99505.03;5246187;28;20672;-79
2024/03/30 01:13:45;;;;;;;1.08;0.50;;;;;;;13.35;83.67;99510.31;5246806;28;20040;-80
2024/03/30 01:16:18;;;;;;;1.00;0.40;;;;;;;13.35;82.97;99505.03;5245353;28;20055;-80
2024/03/30 01:18:50;;;;;;;2.00;0.50;;;;;;;13.32;83.60;99504.59;5244838;28;20040;-79
2024/03/30 01:21:22;;;;;;;2.30;0.60;;;;;;;13.31;84.24;99506.41;5246364;28;20036;-80
2024/03/30 01:23:55;;;;;;;1.50;0.63;;;;;;;13.38;84.21;99499.44;5246563;28;20521;-79
2024/03/30 01:26:28;;;;;;;1.10;0.60;;;;;;;13.33;83.42;99501.78;5245432;28;20467;-79
2024/03/30 01:29:02;;;;;;;1.35;0.55;;;;;;;13.50;82.97;99506.88;5225875;28;20515;-79
2024/03/30 01:31:35;;;;;;;2.05;1.02;;;;;;;13.33;83.93;99506.22;5245933;28;20028;-79
2024/03/30 01:34:07;;;;;;;2.17;0.80;;;;;;;13.32;84.86;99510.66;5245947;28;20032;-79
2024/03/30 01:36:38;;;;;;;1.42;0.75;;;;;;;13.30;85.13;99512.66;5247019;28;20162;-79
2024/03/30 01:39:11;;;;;;;4.00;0.70;;;;;;;13.32;84.99;99512.47;5244530;28;20033;-80
2024/03/30 01:41:42;;;;;;;1.45;0.60;;;;;;;13.32;85.32;99512.47;5245948;28;20124;-79
2024/03/30 01:44:14;;;;;;;1.02;0.50;;;;;;;13.33;84.21;99514.94;5248564;28;20045;-79
2024/03/30 01:46:49;;;;;;;1.15;0.50;;;;;;;13.35;86.33;99504.22;5246917;28;20517;-79
2024/03/30 01:49:21;;;;;;;1.52;0.80;;;;;;;13.22;85.77;99494.31;5245984;28;20045;-79
2024/03/30 01:51:54;;;;;;;1.27;0.60;;;;;;;13.27;86.67;99491.97;5244570;28;20044;-80
2024/03/30 01:54:27;;;;;;;1.67;0.60;;;;;;;13.26;88.83;99484.25;5246562;28;20041;-80
2024/03/30 01:57:00;;;;;;;1.60;0.50;;;;;;;13.27;89.47;99486.72;5244729;28;20028;-80
2024/03/30 01:59:32;;;;;;;;;;;;;;;14.23;81.42;99491.94;5245247;28;20036;-80
2024/03/30 02:02:04;;;;;;;1.05;0.50;;;;;;;13.35;91.07;99483.19;5245395;28;20293;-80
2024/03/30 02:04:38;;;;;;;1.27;0.60;;;;;;;13.32;94.23;99488.81;5244734;28;21066;-79
2024/03/30 02:07:11;;;;;;;2.08;0.60;;;;;;;13.34;96.72;99494.72;5243212;28;20491;-79
2024/03/30 02:09:44;;;;;;;2.15;0.60;;;;;;;13.30;96.83;99496.06;5243423;28;20705;-80
2024/03/30 02:12:16;;;;;;;1.30;0.70;;;;;;;13.34;99.42;99507.88;5244054;28;20048;-80
2024/03/30 02:14:48;;;;;;;3.00;0.70;;;;;;;13.35;100.00;99512.13;5244974;28;20040;-79
2024/03/30 02:17:20;;;;;;;1.00;0.50;;;;;;;13.27;100.00;99510.41;5244532;28;20041;-79
2024/03/30 02:19:56;;;;;;;1.60;0.43;;;;;;;13.26;100.00;99511.41;5243582;28;20028;-80
2024/03/30 02:22:28;;;;;;;1.45;0.55;;;;;;;13.24;100.00;99508.13;5242809;28;20044;-79
2024/03/30 02:25:00;;;;;;;2.55;0.70;;;;;;;13.24;100.00;99518.63;5239697;28;20045;-79
2024/03/30 02:27:31;;;;;;;1.92;0.85;;;;;;;13.20;100.00;99506.81;5243527;28;20393;-79
2024/03/30 02:30:05;;;;;;;1.17;0.57;;;;;;;13.21;100.00;99499.75;5243440;28;20322;-79
2024/03/30 02:32:36;;;;;;;;;;;;;;;14.22;95.02;99506.94;5244223;28;20033;-79
2024/03/30 02:35:08;;;;;;;1.35;0.60;;;;;;;13.32;100.00;99499.31;5243531;28;20297;-79
2024/03/30 02:37:40;;;;;;;3.35;0.55;;;;;;;13.21;100.00;99489.22;5243800;28;20040;-79
2024/03/30 02:40:13;;;;;;;1.17;0.57;;;;;;;13.15;100.00;99488.94;5243718;28;20029;-78
2024/03/30 02:42:46;;;;;;;1.55;0.63;;;;;;;13.16;100.00;99481.88;5244066;28;20033;-79
2024/03/30 02:45:17;;;;;;;1.58;0.60;;;;;;;13.17;100.00;99483.50;5244076;28;20040;-79
2024/03/30 02:47:49;;;;;;;1.52;0.63;;;;;;;13.21;100.00;99489.22;5243332;28;20500;-79
2024/03/30 02:50:21;;;;;;;1.33;0.50;;;;;;;13.14;100.00;99478.59;5244495;28;20032;-79
2024/03/30 02:52:53;;;;;;;1.67;0.50;;;;;;;13.13;100.00;99488.31;5243614;28;20037;-78
2024/03/30 02:55:25;;;;;;;1.45;0.77;;;;;;;13.14;100.00;99489.13;5243809;28;20537;-79
2024/03/30 02:57:57;;;;;;;1.55;0.52;;;;;;;13.12;100.00;99477.97;5239628;28;20033;-79
2024/03/30 03:00:29;;;;;;;1.65;0.68;;;;;;;13.10;100.00;99485.22;5241982;28;20036;-79
2024/03/30 03:03:01;;;;;;;1.63;0.70;;;;;;;13.08;100.00;99471.44;5243308;28;20033;-79
2024/03/30 03:05:33;;;;;;;1.77;0.85;;;;;;;13.07;100.00;99472.44;5243313;28;20366;-79
2024/03/30 03:08:05;;;;;;;2.40;0.90;;;;;;;13.02;100.00;99469.53;5236344;28;20032;-79
2024/03/30 03:10:37;;;;;;;2.28;0.80;;;;;;;13.01;100.00;99479.22;5245977;28;20036;-79
2024/03/30 03:13:09;;;;;;;2.17;0.80;;;;;;;12.99;100.00;99468.06;5246940;28;20025;-79
2024/03/30 03:15:41;;;;;;;3.03;1.10;;;;;;;12.95;100.00;99466.78;5247140;28;20426;-79
2024/03/30 03:18:13;;;;;;;2.58;0.82;;;;;;;12.94;100.00;99474.88;5243865;28;20037;-79
2024/03/30 03:20:44;;;;;;;3.95;0.80;;;;;;;12.92;100.00;99469.78;5246016;28;22459;-79
2024/03/30 03:23:16;;;;;;;3.42;0.85;;;;;;;12.89;100.00;99465.69;5247779;28;20028;-79
2024/03/30 03:25:48;;;;;;;2.92;0.98;;;;;;;12.91;100.00;99476.03;5247758;28;20031;-79
2024/03/30 03:28:20;;;;;;;1.42;0.68;;;;;;;12.91;100.00;99466.31;5248067;28;20029;-79
2024/03/30 03:30:52;;;;;;;3.83;1.33;;;;;;;12.87;100.00;99459.78;5245892;28;20033;-79
2024/03/30 03:33:24;;;;;;;2.40;0.90;;;;;;;12.83;100.00;99441.94;5246540;28;20048;-79
2024/03/30 03:35:57;;;;;;;2.58;0.90;;;;;;;12.85;100.00;99451.28;5247040;28;20386;-79
2024/03/30 03:38:29;;;;;;;2.97;0.80;;;;;;;12.88;100.00;99445.69;5246424;28;20032;-79
2024/03/30 03:41:01;;;;;;;1.73;0.77;;;;;;;12.85;100.00;99451.28;5229805;28;20037;-79
2024/03/30 03:43:33;;;;;;;1.50;0.90;;;;;;;12.81;100.00;99444.75;5247522;28;20411;-79
2024/03/30 03:46:04;;;;;;;2.25;0.82;;;;;;;12.82;100.00;99445.56;5246787;28;20032;-79
2024/03/30 03:48:36;;;;;;;2.05;1.13;;;;;;;12.81;100.00;99439.50;5247493;28;20041;-79
2024/03/30 03:51:09;;;;;;;1.20;0.65;;;;;;;12.78;100.00;99436.41;5249915;28;20490;-79
2024/03/30 03:53:41;;;;;;;1.73;0.90;;;;;;;12.87;100.00;99445.84;5247961;28;20382;-79
2024/03/30 03:56:13;;;;;;;1.42;0.77;;;;;;;12.80;100.00;99432.59;5246762;28;20039;-79
2024/03/30 03:58:45;;;;;;;1.27;0.75;;;;;;;12.82;100.00;99435.06;5227480;28;20045;-79
2024/03/30 04:01:17;;;;;;;2.08;1.00;;;;;;;12.81;100.00;99436.06;5246971;28;20045;-78
2024/03/30 04:03:48;;;;;;;2.92;1.00;;;;;;;12.78;100.00;99439.03;5246521;28;20029;-79
2024/03/30 04:06:20;;;;;;;1.85;0.93;;;;;;;12.78;100.00;99439.84;5247223;28;20043;-79
2024/03/30 04:08:52;;;;;;;1.95;1.00;;;;;;;12.76;100.00;99441.03;5246845;28;20044;-79
2024/03/30 04:11:24;;;;;;;2.15;1.08;;;;;;;12.77;100.00;99443.50;5248232;28;20526;-79
2024/03/30 04:13:57;;;;;;;2.80;1.00;;;;;;;12.82;100.00;99446.38;5228942;28;20434;-79
2024/03/30 04:16:29;;;;;;;2.03;1.10;;;;;;;12.81;100.00;99449.19;5247614;28;20088;-79
2024/03/30 04:19:01;;;;;;;2.55;1.10;;;;;;;12.72;100.00;99429.22;5246358;28;20498;-79
2024/03/30 04:21:33;;;;;;;1.63;0.95;;;;;;;12.73;100.00;99420.34;5224989;28;20044;-79
2024/03/30 04:24:05;;;;;;;2.28;1.20;;;;;;;12.67;100.00;99411.38;5247073;28;20036;-79
2024/03/30 04:26:37;;;;;;;2.53;1.20;;;;;;;12.64;100.00;99422.25;5246540;28;20277;-79
2024/03/30 04:29:09;;;;;;;1.98;1.10;;;;;;;12.59;100.00;99409.66;5244997;28;20406;-79
2024/03/30 04:31:41;;;;;;;2.25;1.00;;;;;;;12.70;100.00;99416.28;5246958;28;20033;-79
2024/03/30 04:34:13;;;;;;;2.10;1.20;;;;;;;12.59;100.00;99400.94;5247368;28;20033;-79
2024/03/30 04:36:45;;;;;;;1.50;1.10;;;;;;;12.62;100.00;99403.22;5246301;28;20024;-79
2024/03/30 04:39:17;;;;;;;2.08;1.20;;;;;;;12.62;100.00;99397.97;5246478;28;20029;-79
2024/03/30 04:41:49;;;;;;;1.85;1.17;;;;;;;12.61;100.00;99405.03;5246922;28;20048;-80
2024/03/30 04:44:20;;;;;;;1.80;1.33;;;;;;;12.54;100.00;99383.09;5244457;28;20045;-79
2024/03/30 04:46:52;;;;;;;2.55;1.75;;;;;;;12.59;100.00;99393.06;5246109;28;20046;-80
2024/03/30 04:49:25;;;;;;;3.55;2.10;;;;;;;12.60;100.00;99384.19;5246318;28;20909;-79
2024/03/30 04:51:56;;;;;;;1.77;1.42;;;;;;;12.57;100.00;99379.28;5246243;28;20478;-79
2024/03/30 04:54:28;;;;;;;2.72;1.63;;;;;;;12.57;100.00;99376.66;5246683;28;20044;-79
2024/03/30 04:57:00;;;;;;;2.50;1.90;;;;;;;12.53;100.00;99370.13;5247072;28;20505;-79
2024/03/30 04:59:32;;;;;;;2.78;1.90;;;;;;;12.60;100.00;99381.56;5242514;28;20225;-79
2024/03/30 05:02:04;;;;;;;2.50;1.73;;;;;;;12.48;100.00;99364.59;5245486;28;20035;-79
2024/03/30 05:04:36;;;;;;;2.15;1.77;;;;;;;12.59;100.00;99374.69;5245755;28;20055;-79
2024/03/30 05:07:08;;;;;;;2.20;1.73;;;;;;;12.53;100.00;99362.25;5244814;28;20037;-79
2024/03/30 05:09:40;;;;;;;2.35;2.10;;;;;;;12.56;100.00;99365.34;5244515;28;20619;-80
2024/03/30 05:12:12;;;;;;;2.67;2.22;;;;;;;12.53;100.00;99351.75;5243059;28;20207;-79
2024/03/30 05:14:44;;;;;;;2.65;2.40;;;;;;;12.56;100.00;99357.44;5238808;28;20029;-79
2024/03/30 05:17:16;;;;;;;4.68;2.78;;;;;;;12.52;100.00;99342.25;5242972;28;20028;-79
2024/03/30 05:22:38;;;;;;;4.85;3.30;;;;;;;12.58;100.00;99349.41;5246285;28;20045;-79
2024/03/30 05:25:10;;;;;;;3.72;2.95;;;;;;;12.54;100.00;99334.97;5243662;28;20372;-79
2024/03/30 05:27:42;;;;;;;3.22;2.92;;;;;;;12.52;100.00;99337.78;5243880;28;20419;-79
2024/03/30 05:30:14;;;;;;;3.67;3.35;;;;;;;12.52;100.00;99334.34;5245572;28;20037;-79
2024/03/30 05:32:49;;;;;;;4.05;3.67;;;;;;;12.51;100.00;99317.78;5247213;28;20036;-79
2024/03/30 05:35:21;;;;;;;4.15;3.75;;;;;;;12.52;100.00;99329.09;5242957;28;20473;-79
2024/03/30 05:37:53;;;;;;;3.72;3.42;;;;;;;12.45;100.00;99325.56;5246226;28;20041;-79
2024/03/30 05:40:25;;;;;;;3.65;3.15;;;;;;;12.50;100.00;99326.66;5247070;28;20033;-79
2024/03/30 05:43:00;;;;;;;3.80;3.20;;;;;;;12.43;100.00;99315.25;5245084;28;20094;-79
2024/03/30 05:45:34;;;;;;;3.72;3.30;;;;;;;12.50;100.00;99316.16;5247258;28;20056;-79
2024/03/30 05:48:07;;;;;;;4.30;3.90;;;;;;;12.47;100.00;99305.19;5245039;28;20839;-80
2024/03/30 05:50:39;;;;;;;4.10;3.67;;;;;;;12.51;100.00;99306.47;5246030;28;20196;-79
2024/03/30 05:53:11;;;;;;;4.77;3.77;;;;;;;12.54;100.00;99316.59;5248150;28;20032;-79
2024/03/30 05:55:43;;;;;;;4.78;4.10;;;;;;;12.48;100.00;99319.94;5242852;28;20483;-79
2024/03/30 05:58:15;;;;;;;4.15;3.75;;;;;;;12.51;100.00;99322.22;5244887;28;20109;-79
2024/03/30 06:00:47;;;;;;;4.27;3.87;;;;;;;12.54;100.00;99316.59;5246400;28;20486;-79
2024/03/30 06:03:19;;;;;;;4.80;3.90;;;;;;;12.56;100.00;99314.59;5245415;28;20037;-79
2024/03/30 06:05:51;;;;;;;5.25;3.72;;;;;;;12.59;100.00;99306.38;5244740;28;20033;-81
2024/03/30 06:08:23;;;;;;;4.00;3.60;;;;;;;12.64;100.00;99325.03;5244831;28;20041;-81
2024/03/30 06:10:55;;;;;;;4.15;3.75;;;;;;;12.63;100.00;99321.59;5245405;28;20043;-81
2024/03/30 06:13:27;;;;;;;4.40;4.00;;;;;;;12.60;100.00;99327.19;5245444;28;20481;-80
2024/03/30 06:16:01;;;;;;;4.82;4.07;;;;;;;12.67;100.00;99337.81;5245092;28;20274;-80
2024/03/30 06:18:33;;;;;;;4.78;3.92;;;;;;;12.65;100.00;99331.91;5245424;28;20094;-80
2024/03/30 06:21:05;;;;;;;4.43;3.90;;;;;;;12.70;100.00;99339.28;5245598;28;20054;-80
2024/03/30 06:23:36;;;;;;;4.63;3.67;;;;;;;12.70;100.00;99339.28;5243970;28;20043;-80
2024/03/30 06:26:08;;;;;;;4.47;3.90;;;;;;;12.69;100.00;99346.34;5245894;28;20025;-78
2024/03/30 06:28:40;;;;;;;4.50;3.85;;;;;;;12.73;100.00;99344.13;5244952;28;20043;-79
2024/03/30 06:31:12;;;;;;;3.88;3.47;;;;;;;12.76;100.00;99349.03;5244262;28;21071;-80
2024/03/30 06:33:45;;;;;;;4.18;3.70;;;;;;;12.78;100.00;99339.19;5226985;28;20479;-79
2024/03/30 06:36:17;;;;;;;4.03;3.50;;;;;;;12.78;100.00;99334.72;5245794;28;20020;-79
2024/03/30 06:38:49;;;;;;;4.40;4.00;;;;;;;12.78;100.00;99334.72;5243774;28;20041;-80
2024/03/30 06:44:11;;;;;;;3.67;3.33;;;;;;;12.83;100.00;99329.75;5244070;28;20045;-81
2024/03/30 06:46:43;;;;;;;3.50;3.20;;;;;;;12.84;100.00;99323.50;5245514;28;20033;-81
2024/03/30 06:49:15;;;;;;;4.45;3.40;;;;;;;12.86;100.00;99329.38;5242797;28;20040;-80
2024/03/30 06:51:47;;;;;;;4.20;3.80;;;;;;;12.87;100.00;99320.50;5243945;28;20041;-80
2024/03/30 06:54:20;;;;;;;6.82;3.80;;;;;;;12.86;100.00;99315.44;5244215;28;20135;-80
2024/03/30 06:56:52;;;;;;;4.47;4.07;;;;;;;12.95;100.00;99332.72;5243425;28;20466;-79
2024/03/30 06:59:23;;;;;;;5.45;3.95;;;;;;;12.95;100.00;99331.91;5244300;28;20037;-79
2024/03/30 07:01:55;;;;;;;5.00;3.92;;;;;;;12.85;100.00;99309.34;5244052;28;20043;-79
2024/03/30 07:04:27;;;;;;;4.60;4.20;;;;;;;12.94;100.00;99322.41;5242030;28;20032;-80
2024/03/30 07:07:02;;;;;;;4.65;4.13;;;;;;;12.97;100.00;99317.59;5242758;28;20062;-79
2024/03/30 07:09:34;;;;;;;4.57;4.10;;;;;;;12.95;100.00;99318.75;5242552;28;20036;-79
2024/03/30 07:12:06;;;;;;;4.13;3.72;;;;;;;12.93;100.00;99326.84;5242843;28;20036;-80
2024/03/30 07:14:38;;;;;;;4.97;4.47;;;;;;;12.99;100.00;99325.28;5242207;28;20211;-79
2024/03/30 07:17:11;;;;;;;4.28;3.80;;;;;;;13.00;100.00;99321.69;5243388;28;20029;-80
2024/03/30 07:19:43;;;;;;;5.55;4.95;;;;;;;13.03;100.00;99308.16;5240563;28;20037;-79
2024/03/30 07:22:15;;;;;;;6.18;4.32;;;;;;;13.01;100.00;99312.78;5242795;28;20516;-80
2024/03/30 07:24:47;;;;;;;6.32;4.50;;;;;;;12.96;100.00;99304.66;5243431;28;20039;-79
2024/03/30 07:27:19;;;;;;;6.18;5.13;;;;;;;13.02;100.00;99304.72;5244670;28;20044;-79
2024/03/30 07:29:51;;;;;;;7.22;5.45;;;;;;;13.00;100.00;99298.84;5242036;28;20068;-79
2024/03/30 07:32:23;;;;;;;5.78;5.10;;;;;;;13.10;100.00;99314.31;5244311;28;20416;-80
2024/03/30 07:34:55;;;;;;;5.65;5.05;;;;;;;13.08;100.00;99305.81;5243726;28;20036;-79
2024/03/30 07:37:27;;;;;;;11.88;6.40;;;;;;;13.05;100.00;99296.47;5242292;28;20043;-79
2024/03/30 07:39:59;;;;;;;6.50;5.75;;;;;;;13.04;100.00;99291.41;5240698;28;20041;-79
2024/03/30 07:42:31;;;;;;;7.68;5.93;;;;;;;13.12;100.00;99302.63;5243736;28;20051;-79
2024/03/30 07:45:03;;;;;;;8.03;6.70;;;;;;;13.14;100.00;99298.00;5243271;28;20053;-79
2024/03/30 07:47:37;;;;;;;7.47;6.60;;;;;;;13.15;100.00;99275.97;5241597;28;20033;-81
2024/03/30 07:50:09;;;;;;;7.95;7.15;;;;;;;13.17;100.00;99286.28;5242937;28;20495;-80
2024/03/30 07:52:41;;;;;;;8.43;7.47;;;;;;;13.25;100.00;99291.44;5242276;28;20064;-79
2024/03/30 07:55:14;;;;;;;7.68;6.78;;;;;;;13.34;100.00;99292.19;5242444;28;20586;-79
2024/03/30 07:57:45;;;;;;;8.95;8.05;;;;;;;13.40;100.00;99288.78;5247412;28;20028;-79
2024/03/30 08:00:18;;;;;;;9.48;8.00;;;;;;;13.48;100.00;99280.78;5227169;28;20049;-81
2024/03/30 08:02:50;;;;;;;9.80;8.05;;;;;;;13.63;100.00;99291.25;5246702;28;20053;-81
2024/03/30 08:05:22;;;;;;;9.20;8.20;;;;;;;13.70;100.00;99281.59;5247782;28;20063;-79
2024/03/30 08:07:54;;;;;;;9.35;8.45;;;;;;;13.69;100.00;99284.44;5246706;28;20033;-81
2024/03/30 08:10:26;;;;;;;9.03;8.10;;;;;;;13.80;100.00;99282.09;5246462;28;20033;-79
2024/03/30 08:12:58;;;;;;;9.80;8.23;;;;;;;13.82;100.00;99280.06;5247025;28;20032;-78
2024/03/30 08:15:30;;;;;;;9.18;8.30;;;;;;;13.88;100.00;99273.25;5247350;28;20037;-79
2024/03/30 08:18:02;;;;;;;9.60;8.57;;;;;;;13.88;100.00;99270.63;5246574;28;20035;-79
2024/03/30 08:20:34;;;;;;;9.27;8.38;;;;;;;13.98;100.00;99278.19;5245004;28;20041;-79
2024/03/30 08:23:06;;;;;;;10.82;9.73;;;;;;;14.05;100.00;99277.25;5244087;28;20035;-81
2024/03/30 08:25:38;;;;;;;11.35;9.50;;;;;;;14.11;100.00;99278.28;5244882;28;20459;-79
2024/03/30 08:28:10;;;;;;;11.63;9.85;;;;;;;14.11;100.00;99260.66;5245581;28;20025;-79
2024/03/30 08:30:42;;;;;;;10.95;9.88;;;;;;;14.23;100.00;99276.75;5246471;28;20406;-79
2024/03/30 08:33:14;;;;;;;13.05;10.65;;;;;;;14.19;100.00;99254.44;5227961;28;20051;-79
2024/03/30 08:35:53;;;;;;;10.85;9.52;;;;;;;14.48;100.00;99252.59;5246378;28;20033;-79
2024/03/30 08:38:25;;;;;;;11.13;9.85;;;;;;;14.29;100.00;99249.66;5246057;28;20033;-78
2024/03/30 08:40:57;;;;;;;11.05;9.88;;;;;;;14.40;100.00;99260.66;5246722;28;20032;-78
2024/03/30 08:43:29;;;;;;;11.65;10.55;;;;;;;14.38;100.00;99258.22;5244813;28;20503;-78
2024/03/30 08:46:02;;;;;;;11.57;10.48;;;;;;;14.43;100.00;99244.44;5228651;28;20049;-80
2024/03/30 08:48:34;;;;;;;;;;;;;;;15.36;100.00;99253.56;5245979;28;20526;-79
2024/03/30 08:51:06;;;;;;;11.88;10.68;;;;;;;14.54;100.00;99249.22;5246108;28;19924;-79
2024/03/30 08:53:38;;;;;;;11.45;10.35;;;;;;;14.65;100.00;99248.66;5245290;28;20048;-81
2024/03/30 08:56:10;;;;;;;11.77;10.70;;;;;;;14.68;100.00;99256.19;5245717;28;20380;-80
2024/03/30 08:58:42;;;;;;;12.63;10.57;;;;;;;14.69;100.00;99260.44;5242987;28;20063;-81
2024/03/30 09:01:14;;;;;;;10.65;9.52;;;;;;;14.73;100.00;99256.41;5245712;28;20029;-79
2024/03/30 09:03:46;;;;;;;11.48;9.48;;;;;;;14.86;100.00;99268.84;5244997;28;20025;-80
2024/03/30 09:06:18;;;;;;;10.82;9.73;;;;;;;14.86;100.00;99249.56;5245772;28;20055;-81
2024/03/30 09:08:51;;;;;;;10.93;9.93;;;;;;;14.87;100.00;99244.09;5244879;28;20039;-79
2024/03/30 09:11:23;;;;;;;10.40;9.40;;;;;;;15.00;100.00;99245.97;5245265;28;20316;-80
2024/03/30 09:13:55;;;;;;;12.15;9.85;;;;;;;15.01;100.00;99245.78;5245236;28;20044;-79
2024/03/30 09:16:27;;;;;;;10.32;9.43;;;;;;;15.16;100.00;99240.34;5245869;28;20475;-80
2024/03/30 09:18:59;;;;;;;10.38;9.20;;;;;;;15.14;100.00;99246.81;5243287;28;20036;-79
2024/03/30 09:21:31;;;;;;;9.77;8.88;;;;;;;15.15;100.00;99241.34;5239254;28;20029;-80
2024/03/30 09:24:03;;;;;;;10.45;9.45;;;;;;;15.24;100.00;99240.16;5243676;28;20526;-79
2024/03/30 09:26:35;;;;;;;11.05;9.93;;;;;;;15.39;100.00;99237.34;5244869;28;20510;-79
2024/03/30 09:29:07;;;;;;;10.18;9.07;;;;;;;15.35;100.00;99227.41;5244192;28;20047;-79
2024/03/30 09:31:39;;;;;;;11.38;9.65;;;;;;;15.37;100.00;99234.09;5243666;28;20032;-80
2024/03/30 09:34:11;;;;;;;11.32;9.48;;;;;;;15.31;100.00;99222.53;5243256;28;20443;-81
2024/03/30 09:36:42;;;;;;;10.27;9.23;;;;;;;15.46;100.00;99234.72;5245174;28;20037;-80
2024/03/30 09:39:14;;;;;;;10.38;9.35;;;;;;;15.45;100.00;99239.16;5225069;28;20044;-80
2024/03/30 09:41:53;;;;;;;9.80;8.80;;;;;;;15.62;100.00;99250.16;5243089;28;20059;-80
2024/03/30 09:44:25;;;;;;;10.07;8.45;;;;;;;15.45;100.00;99241.81;5244801;28;20049;-79
2024/03/30 09:46:57;;;;;;;10.80;9.70;;;;;;;15.53;100.00;99246.91;5243349;28;20033;-79
2024/03/30 09:49:33;;;;;;;10.90;9.47;;;;;;;15.66;100.00;99255.88;5244001;28;20498;-79
2024/03/30 09:52:06;;;;;;;9.60;8.57;;;;;;;15.53;100.00;99252.19;5244147;28;20043;-80
2024/03/30 09:54:39;;;;;;;10.10;9.10;;;;;;;15.53;100.00;99249.56;5248166;28;20028;-81
2024/03/30 09:57:11;;;;;;;10.27;9.15;;;;;;;15.55;100.00;99246.72;5243118;28;20029;-79
2024/03/30 09:59:44;;;;;;;9.70;8.73;;;;;;;15.44;100.00;99244.66;5244345;28;20029;-80
2024/03/30 10:02:16;;;;;;;;;;;;;;;16.52;99.95;99255.81;5241262;28;20033;-80
2024/03/30 10:04:48;;;;;;;9.20;8.30;;;;;;;15.69;100.00;99253.66;5244457;28;19943;-81
2024/03/30 10:07:35;;;;;;;10.85;8.80;;;;;;;15.78;100.00;99264.81;5242329;28;20289;-79
2024/03/30 10:10:11;;;;;;;9.40;8.50;;;;;;;15.67;100.00;99258.31;5242684;28;20043;-79
2024/03/30 10:12:48;;;;;;;10.40;9.38;;;;;;;15.97;100.00;99257.91;5242788;28;20040;-80
2024/03/30 10:15:37;;;;;;;11.73;8.70;;;;;;;16.15;100.00;99254.66;5246125;28;20397;-79
2024/03/30 10:18:09;;;;;;;10.50;8.63;;;;;;;15.91;100.00;99249.00;5242858;28;20048;-82
2024/03/30 10:20:41;;;;;;;11.38;8.93;;;;;;;15.98;100.00;99249.78;5245030;28;20724;-81
2024/03/30 10:23:13;;;;;;;9.60;8.55;;;;;;;15.98;100.00;99227.84;5241328;28;20045;-80
2024/03/30 10:25:54;;;;;;;9.63;8.50;;;;;;;16.52;100.00;99237.31;5243940;28;20032;-81
2024/03/30 10:28:26;;;;;;;9.23;7.95;;;;;;;16.37;100.00;99232.28;5245621;28;20491;-80
2024/03/30 10:30:58;;;;;;;13.90;8.25;;;;;;;16.53;100.00;99241.56;5243166;28;20054;-79
2024/03/30 10:33:31;;;;;;;10.85;7.57;;;;;;;16.57;97.18;99232.22;5245431;28;20041;-80
2024/03/30 10:36:03;;;;;;;11.48;7.53;;;;;;;16.78;99.11;99249.63;5244149;28;20095;-79
2024/03/30 10:38:37;;;;;;;12.70;7.73;;;;;;;16.88;94.33;99251.84;5241008;28;20044;-80
2024/03/30 10:41:09;;;;;;;10.95;7.50;;;;;;;16.86;93.63;99249.44;5242113;28;20040;-81
2024/03/30 10:43:40;;;;;;;10.82;7.60;;;;;;;16.84;94.83;99256.75;5238921;28;20052;-79
2024/03/30 10:46:12;;;;;;;10.57;7.72;;;;;;;16.78;94.42;99261.06;5242791;28;20275;-82
2024/03/30 10:48:44;;;;;;;9.70;7.07;;;;;;;16.81;92.89;99253.72;5242674;28;20041;-82
2024/03/30 10:51:17;;;;;;;11.10;7.53;;;;;;;16.96;94.39;99254.25;5225612;28;20125;-81
2024/03/30 10:53:49;;;;;;;8.48;6.68;;;;;;;17.12;93.95;99266.19;5242245;28;20388;-80
2024/03/30 10:56:21;;;;;;;7.93;6.50;;;;;;;17.19;97.16;99274.91;5244081;28;20043;-82
2024/03/30 10:58:59;;;;;;;12.07;6.25;;;;;;;17.41;94.50;99286.00;5243423;28;20505;-79
2024/03/30 11:01:31;;;;;;;11.88;6.05;;;;;;;17.35;89.42;99277.09;5243018;28;20036;-81
2024/03/30 11:04:04;;;;;;;11.27;5.70;;;;;;;17.42;87.69;99282.31;5242971;28;20059;-79
2024/03/30 11:06:36;;;;;;;;;;;;;;;18.35;81.63;99295.72;5244522;28;20514;-80
2024/03/30 11:09:12;;;;;;;11.60;5.78;;;;;;;17.49;81.69;99305.06;5222867;28;20016;-80
2024/03/30 11:11:48;;;;;;;14.05;6.22;;;;;;;17.49;84.48;99304.28;5243630;28;20041;-80
2024/03/30 11:14:19;;;;;;;12.48;6.30;;;;;;;17.46;80.25;99304.69;5242905;28;20033;-79
2024/03/30 11:16:57;;;;;;;15.13;6.07;;;;;;;17.60;81.31;99300.94;5243480;28;20486;-80
2024/03/30 11:19:36;;;;;;;14.55;6.05;;;;;;;17.52;80.23;99294.06;5244530;28;20064;-81
2024/03/30 11:22:59;;;;;;;15.25;4.95;;;;;;;17.88;78.51;99313.84;5243097;28;21073;-79
2024/03/30 11:25:34;;;;;;;14.70;6.30;;;;;;;17.35;78.42;99306.19;5158426;28;20038;-80
2024/03/30 11:28:15;;;;;;;15.88;5.00;;;;;;;17.26;79.07;99318.84;5156423;28;20043;-80
2024/03/30 11:30:58;;;;;;;12.65;5.65;;;;;;;17.54;80.57;99325.66;5221126;28;20036;-81
2024/03/30 11:33:55;;;;;;;14.60;5.03;;;;;;;17.87;77.29;99319.34;5246843;28;20224;-80
2024/03/30 11:36:44;;;;;;;13.50;5.20;;;;;;;17.79;74.80;99341.59;5248606;28;20032;-79
2024/03/30 11:39:28;;;;;;;11.52;4.10;;;;;;;17.80;74.52;99348.53;5249124;28;20052;-85
2024/03/30 11:42:09;;;;;;;13.18;4.57;;;;;;;17.59;71.17;99349.66;5253261;28;20037;-83
2024/03/30 11:44:42;;;;;;;11.00;4.07;;;;;;;17.41;69.92;99353.00;5249264;28;20056;-82
2024/03/30 11:47:14;;;;;;;11.05;4.90;;;;;;;17.44;69.81;99357.88;5250510;28;20051;-83
2024/03/30 11:49:46;;;;;;;10.63;3.90;;;;;;;17.33;68.90;99355.88;5254850;28;20029;-84
2024/03/30 11:52:18;;;;;;;9.60;3.93;;;;;;;17.37;68.09;99374.81;5255169;28;20030;-82
2024/03/30 11:54:50;;;;;;;10.68;4.50;;;;;;;17.26;67.18;99378.91;5255329;28;20299;-81
2024/03/30 11:57:26;;;;;;;8.85;3.97;;;;;;;17.37;70.10;99372.16;5251707;28;20042;-81